createdAt,value
2022-11-16T00:00:10.496Z,14.26
2022-11-16T00:02:38.817Z,14.42
2022-11-16T00:05:08.237Z,14.25
2022-11-16T00:07:36.618Z,14.27
2022-11-16T00:10:11.268Z,14.39
2022-11-16T00:12:40.458Z,14.39
2022-11-16T00:15:09.963Z,14.47
2022-11-16T00:17:38.180Z,14.41
2022-11-16T00:20:08.175Z,14.44
2022-11-16T00:22:36.364Z,14.34
2022-11-16T00:25:07.303Z,14.24
2022-11-16T00:27:35.713Z,14.26
2022-11-16T00:30:05.446Z,14.37
2022-11-16T00:32:33.893Z,14.44
2022-11-16T00:35:02.187Z,14.51
2022-11-16T00:37:30.485Z,14.53
2022-11-16T00:39:58.744Z,14.51
2022-11-16T00:42:28.321Z,14.27
2022-11-16T00:44:56.762Z,14.40
2022-11-16T00:47:25.016Z,14.45
2022-11-16T00:49:53.366Z,14.54
2022-11-16T00:52:22.302Z,14.59
2022-11-16T00:54:50.725Z,14.65
2022-11-16T00:57:19.231Z,14.55
2022-11-16T00:59:49.015Z,14.49
2022-11-16T01:02:17.960Z,14.68
2022-11-16T01:04:46.207Z,14.44
2022-11-16T01:07:14.784Z,14.50
2022-11-16T01:09:43.305Z,14.56
2022-11-16T01:12:10.619Z,14.44
2022-11-16T01:14:40.587Z,14.47
2022-11-16T01:17:10.455Z,14.48
2022-11-16T01:19:39.977Z,14.57
2022-11-16T01:22:09.146Z,14.52
2022-11-16T01:24:37.445Z,14.70
2022-11-16T01:27:06.028Z,14.72
2022-11-16T01:29:37.204Z,14.73
2022-11-16T01:32:06.312Z,14.62
2022-11-16T01:34:36.861Z,14.65
2022-11-16T01:37:12.062Z,14.77
2022-11-16T01:39:43.199Z,14.77
2022-11-16T01:42:19.628Z,14.74
2022-11-16T01:45:09.571Z,14.44
2022-11-16T01:47:38.341Z,14.62
2022-11-16T01:50:14.813Z,14.62
2022-11-16T01:52:52.935Z,14.80
2022-11-16T01:55:23.697Z,14.72
2022-11-16T01:58:07.238Z,14.43
2022-11-16T02:00:37.675Z,14.52
2022-11-16T02:03:24.414Z,14.64
2022-11-16T02:06:39.832Z,14.75
2022-11-16T02:09:57.273Z,14.75
2022-11-16T02:13:02.629Z,14.72
2022-11-16T02:15:44.958Z,14.40
2022-11-16T02:18:31.819Z,14.45
2022-11-16T02:21:23.610Z,14.35
2022-11-16T02:24:37.164Z,14.32
2022-11-16T02:27:57.392Z,14.34
2022-11-16T02:30:27.157Z,14.38
2022-11-16T02:33:03.794Z,14.13
2022-11-16T02:35:38.062Z,14.29
2022-11-16T02:38:13.307Z,14.16
2022-11-16T02:40:47.417Z,14.10
2022-11-16T02:43:26.741Z,14.07
2022-11-16T02:46:01.330Z,14.16
2022-11-16T02:48:36.680Z,14.11
2022-11-16T02:51:07.214Z,14.19
2022-11-16T02:53:43.208Z,13.96
2022-11-16T02:56:14.857Z,14.01
2022-11-16T02:58:43.557Z,14.10
2022-11-16T03:01:18.542Z,14.15
2022-11-16T03:03:53.867Z,14.11
2022-11-16T03:06:27.513Z,14.18
2022-11-16T03:09:03.359Z,14.09
2022-11-16T03:12:01.692Z,14.13
2022-11-16T03:14:40.907Z,14.24
2022-11-16T03:17:16.930Z,14.19
2022-11-16T03:19:56.095Z,14.14
2022-11-16T03:22:34.483Z,14.01
2022-11-16T03:25:04.731Z,14.07
2022-11-16T03:27:41.588Z,14.04
2022-11-16T03:30:13.923Z,13.95
2022-11-16T03:32:54.487Z,13.91
2022-11-16T03:35:30.188Z,13.82
2022-11-16T03:38:01.037Z,13.61
2022-11-16T03:40:34.820Z,13.85
2022-11-16T03:43:07.838Z,13.84
2022-11-16T03:45:38.092Z,13.80
2022-11-16T03:48:09.217Z,13.79
2022-11-16T03:50:37.786Z,13.83
2022-11-16T03:53:06.058Z,13.89
2022-11-16T03:55:35.198Z,13.79
2022-11-16T03:58:03.744Z,13.74
2022-11-16T04:00:32.365Z,13.63
2022-11-16T04:03:08.325Z,13.61
2022-11-16T04:05:54.180Z,13.64
2022-11-16T04:08:45.512Z,13.59
2022-11-16T04:11:33.431Z,13.51
2022-11-16T04:14:19.766Z,13.55
2022-11-16T04:17:13.939Z,13.54
2022-11-16T04:20:01.147Z,13.34
2022-11-16T04:22:52.975Z,13.36
2022-11-16T04:25:26.740Z,13.42
2022-11-16T04:28:13.556Z,13.40
2022-11-16T04:31:08.257Z,13.23
2022-11-16T04:33:57.159Z,13.12
2022-11-16T04:36:52.685Z,13.10
2022-11-16T04:39:21.005Z,12.86
2022-11-16T04:42:06.974Z,13.00
2022-11-16T04:44:54.290Z,13.13
2022-11-16T04:47:25.274Z,13.08
2022-11-16T04:49:53.493Z,12.97
2022-11-16T04:52:24.161Z,12.88
2022-11-16T04:54:54.871Z,12.78
2022-11-16T04:57:24.158Z,12.79
2022-11-16T04:59:52.831Z,12.64
2022-11-16T05:02:21.167Z,12.45
2022-11-16T05:04:56.020Z,12.80
2022-11-16T05:07:26.855Z,12.81
2022-11-16T05:10:03.647Z,12.76
2022-11-16T05:12:32.591Z,12.52
2022-11-16T05:15:03.436Z,12.55
2022-11-16T05:17:34.303Z,12.33
2022-11-16T05:20:20.870Z,12.38
2022-11-16T05:22:58.718Z,12.17
2022-11-16T05:25:36.806Z,12.36
2022-11-16T05:28:08.137Z,12.13
2022-11-16T05:30:40.795Z,12.11
2022-11-16T05:33:09.386Z,12.17
2022-11-16T05:35:41.389Z,12.08
2022-11-16T05:38:11.272Z,11.87
2022-11-16T05:40:44.563Z,12.08
2022-11-16T05:43:12.940Z,11.95
2022-11-16T05:45:49.704Z,11.87
2022-11-16T05:48:18.045Z,11.81
2022-11-16T05:50:46.215Z,11.68
2022-11-16T05:53:25.450Z,11.54
2022-11-16T05:55:53.953Z,11.46
2022-11-16T05:58:22.774Z,11.43
2022-11-16T06:00:54.403Z,11.43
2022-11-16T06:03:23.586Z,11.28
2022-11-16T06:05:53.249Z,11.15
2022-11-16T06:08:21.675Z,11.04
2022-11-16T06:10:54.865Z,11.00
2022-11-16T06:13:23.780Z,11.06
2022-11-16T06:15:56.450Z,11.06
2022-11-16T06:18:25.298Z,10.97
2022-11-16T06:20:53.540Z,10.94
2022-11-16T06:23:23.059Z,10.89
2022-11-16T06:25:56.442Z,10.73
2022-11-16T06:28:28.220Z,10.65
2022-11-16T06:30:57.294Z,10.67
2022-11-16T06:33:32.220Z,10.64
2022-11-16T06:36:02.504Z,10.58
2022-11-16T06:38:32.229Z,10.64
2022-11-16T06:41:02.902Z,10.51
2022-11-16T06:43:35.444Z,10.38
2022-11-16T06:46:05.440Z,10.42
2022-11-16T06:48:34.766Z,10.32
2022-11-16T06:51:06.634Z,10.40
2022-11-16T06:53:36.067Z,10.30
2022-11-16T06:56:07.881Z,10.32
2022-11-16T06:58:43.831Z,10.34
2022-11-16T07:01:14.322Z,10.33
2022-11-16T07:03:44.474Z,10.39
2022-11-16T07:06:14.900Z,10.19
2022-11-16T07:08:46.035Z,10.04
2022-11-16T07:11:20.194Z,10.26
2022-11-16T07:13:49.467Z,10.24
2022-11-16T07:16:18.074Z,10.36
2022-11-16T07:18:53.586Z,10.41
2022-11-16T07:21:22.121Z,10.35
2022-11-16T07:23:50.393Z,10.44
2022-11-16T07:26:22.483Z,10.47
2022-11-16T07:29:13.842Z,10.41
2022-11-16T07:31:46.799Z,10.55
2022-11-16T07:34:34.160Z,10.47
2022-11-16T07:37:12.734Z,10.41
2022-11-16T07:39:41.797Z,10.50
2022-11-16T07:42:12.508Z,10.43
2022-11-16T07:44:58.083Z,10.55
2022-11-16T07:47:26.758Z,10.48
2022-11-16T07:49:55.093Z,10.56
2022-11-16T07:52:26.530Z,10.61
2022-11-16T07:54:59.003Z,10.61
2022-11-16T07:57:30.450Z,10.66
2022-11-16T08:00:02.319Z,10.59
2022-11-16T08:02:41.693Z,10.63
2022-11-16T08:05:16.022Z,10.72
2022-11-16T08:07:44.418Z,10.68
2022-11-16T08:10:13.177Z,10.75
2022-11-16T08:12:43.480Z,10.73
2022-11-16T08:15:14.312Z,10.81
2022-11-16T08:17:42.934Z,10.60
2022-11-16T08:20:13.835Z,10.87
2022-11-16T08:22:43.139Z,10.85
2022-11-16T08:25:13.564Z,10.83
2022-11-16T08:27:45.945Z,10.78
2022-11-16T08:30:15.513Z,10.99
2022-11-16T08:32:45.695Z,11.04
2022-11-16T08:35:15.557Z,10.91
2022-11-16T08:37:45.062Z,10.97
2022-11-16T08:40:14.589Z,11.04
2022-11-16T08:42:45.342Z,11.16
2022-11-16T08:45:14.551Z,11.19
2022-11-16T08:47:43.562Z,11.18
2022-11-16T08:50:11.871Z,11.27
2022-11-16T08:52:40.140Z,11.30
2022-11-16T08:55:10.309Z,11.27
2022-11-16T08:57:39.861Z,10.92
2022-11-16T09:00:15.144Z,11.24
2022-11-16T09:02:43.535Z,11.27
2022-11-16T09:05:12.468Z,11.12
2022-11-16T09:07:41.994Z,11.47
2022-11-16T09:10:11.932Z,11.41
2022-11-16T09:12:40.790Z,11.41
2022-11-16T09:15:10.738Z,11.45
2022-11-16T09:17:40.331Z,11.53
2022-11-16T09:20:10.160Z,11.54
2022-11-16T09:22:38.600Z,11.46
2022-11-16T09:25:09.403Z,11.33
2022-11-16T09:27:38.261Z,11.29
2022-11-16T09:30:09.385Z,11.23
2022-11-16T09:32:39.091Z,11.58
2022-11-16T09:35:08.619Z,11.67
2022-11-16T09:37:36.871Z,11.66
2022-11-16T09:40:06.139Z,11.86
2022-11-16T09:42:49.669Z,11.78
2022-11-16T09:45:25.903Z,11.80
2022-11-16T09:48:01.499Z,11.57
2022-11-16T09:50:43.042Z,11.72
2022-11-16T09:53:33.008Z,11.88
2022-11-16T09:56:05.607Z,11.81
2022-11-16T09:58:42.413Z,11.95
2022-11-16T10:01:24.547Z,12.03
2022-11-16T10:04:02.717Z,12.21
2022-11-16T10:06:46.921Z,12.13
2022-11-16T10:09:15.616Z,12.55
2022-11-16T10:12:03.038Z,12.49
2022-11-16T10:15:25.303Z,12.55
2022-11-16T10:18:12.252Z,12.67
2022-11-16T10:21:03.669Z,12.90
2022-11-16T10:23:45.624Z,13.20
2022-11-16T10:26:27.692Z,13.16
2022-11-16T10:29:15.594Z,13.10
2022-11-16T10:32:02.525Z,13.24
2022-11-16T10:34:41.200Z,13.45
2022-11-16T10:37:13.989Z,13.70
2022-11-16T10:39:42.538Z,13.64
2022-11-16T10:42:16.644Z,13.57
2022-11-16T10:44:47.679Z,13.63
2022-11-16T10:47:23.042Z,13.71
2022-11-16T10:49:59.119Z,13.91
2022-11-16T10:52:29.643Z,13.83
2022-11-16T10:54:57.961Z,14.03
2022-11-16T10:57:26.596Z,14.27
2022-11-16T10:59:56.415Z,14.23
2022-11-16T11:02:39.259Z,14.16
2022-11-16T11:05:20.210Z,14.18
2022-11-16T11:07:58.373Z,14.18
2022-11-16T11:10:34.226Z,14.35
2022-11-16T11:13:18.980Z,14.19
2022-11-16T11:15:48.047Z,14.25
2022-11-16T11:18:27.709Z,14.17
2022-11-16T11:21:10.166Z,14.14
2022-11-16T11:23:49.036Z,14.39
2022-11-16T11:26:36.555Z,14.32
2022-11-16T11:29:21.514Z,14.39
2022-11-16T11:31:53.527Z,14.55
2022-11-16T11:34:25.390Z,14.38
2022-11-16T11:36:57.663Z,14.33
2022-11-16T11:39:36.454Z,14.30
2022-11-16T11:42:23.245Z,13.97
2022-11-16T11:44:59.693Z,14.39
2022-11-16T11:50:44.207Z,14.19
2022-11-16T11:53:36.026Z,14.50
2022-11-16T11:56:06.687Z,14.72
2022-11-16T11:58:39.768Z,14.70
2022-11-16T12:01:37.813Z,14.83
2022-11-16T12:04:45.868Z,15.13
2022-11-16T12:07:29.778Z,14.85
2022-11-16T12:10:06.128Z,14.84
2022-11-16T12:12:50.588Z,14.90
2022-11-16T12:15:56.426Z,15.12
2022-11-16T12:18:42.746Z,15.28
2022-11-16T12:21:14.492Z,15.31
2022-11-16T12:24:04.394Z,15.08
2022-11-16T12:26:46.131Z,15.06
2022-11-16T12:29:33.109Z,15.21
2022-11-16T12:32:29.939Z,15.16
2022-11-16T12:35:17.899Z,15.24
2022-11-16T12:37:53.683Z,14.91
2022-11-16T12:40:39.379Z,14.95
2022-11-16T12:43:21.344Z,15.27
2022-11-16T12:46:07.623Z,15.21
2022-11-16T12:49:17.992Z,15.33
2022-11-16T12:52:03.196Z,15.35
2022-11-16T12:55:28.126Z,15.51
2022-11-16T12:58:15.581Z,15.66
2022-11-16T13:01:03.754Z,15.75
2022-11-16T13:03:40.125Z,15.46
2022-11-16T13:06:14.421Z,15.53
2022-11-16T13:08:54.896Z,15.36
2022-11-16T13:11:28.412Z,15.42
2022-11-16T13:14:01.297Z,15.48
2022-11-16T13:16:31.706Z,15.43
2022-11-16T13:19:01.801Z,15.45
2022-11-16T13:21:50.646Z,15.62
2022-11-16T13:24:46.176Z,15.24
2022-11-16T13:27:26.569Z,15.30
2022-11-16T13:30:00.493Z,15.39
2022-11-16T13:32:48.404Z,15.31
2022-11-16T13:35:19.060Z,15.40
2022-11-16T13:37:49.471Z,15.39
2022-11-16T13:40:30.564Z,15.17
2022-11-16T13:43:19.759Z,15.09
2022-11-16T13:46:02.174Z,14.85
2022-11-16T13:48:36.148Z,14.91
2022-11-16T13:51:07.825Z,14.74
2022-11-16T13:56:29.506Z,14.69
2022-11-16T13:58:59.589Z,14.88
2022-11-16T14:01:58.984Z,15.08
2022-11-16T14:04:54.848Z,15.21
2022-11-16T14:07:43.136Z,15.14
2022-11-16T14:10:13.310Z,15.31
2022-11-16T14:12:53.145Z,15.44
2022-11-16T14:15:23.864Z,15.43
2022-11-16T14:17:59.286Z,15.53
2022-11-16T14:21:00.263Z,15.51
2022-11-16T14:23:56.520Z,15.60
2022-11-16T14:26:38.550Z,15.62
2022-11-16T14:29:46.294Z,15.36
2022-11-16T14:32:24.660Z,15.45
2022-11-16T14:34:56.986Z,15.50
2022-11-16T14:37:39.323Z,15.46
2022-11-16T14:40:16.257Z,15.25
2022-11-16T14:43:15.249Z,15.19
2022-11-16T14:45:40.225Z,14.99
2022-11-16T14:48:17.409Z,14.88
2022-11-16T14:51:00.032Z,14.67
2022-11-16T14:53:30.651Z,14.74
2022-11-16T14:56:10.599Z,14.54
2022-11-16T14:58:39.790Z,14.28
2022-11-16T15:01:15.725Z,14.27
2022-11-16T15:03:53.016Z,14.14
2022-11-16T15:06:22.385Z,13.97
2022-11-16T15:08:58.563Z,13.82
2022-11-16T15:11:44.946Z,13.79
2022-11-16T15:14:21.086Z,13.67
2022-11-16T15:16:54.792Z,13.57
2022-11-16T15:19:24.162Z,13.40
2022-11-16T15:21:54.782Z,13.19
2022-11-16T15:24:32.039Z,13.00
2022-11-16T15:27:12.097Z,12.80
2022-11-16T15:29:40.652Z,12.84
2022-11-16T15:32:16.686Z,12.76
2022-11-16T15:34:48.852Z,12.63
2022-11-16T15:37:28.779Z,12.53
2022-11-16T15:40:00.001Z,12.67
2022-11-16T15:42:30.106Z,12.53
2022-11-16T15:45:15.543Z,12.49
2022-11-16T15:47:46.503Z,12.42
2022-11-16T15:50:19.422Z,12.33
2022-11-16T15:52:50.992Z,12.18
2022-11-16T15:55:41.380Z,12.10
2022-11-16T15:58:22.339Z,12.18
2022-11-16T16:00:50.718Z,12.11
2022-11-16T16:03:24.088Z,12.03
2022-11-16T16:05:54.351Z,12.03
2022-11-16T16:08:33.139Z,12.00
2022-11-16T16:11:10.855Z,11.82
2022-11-16T16:13:41.807Z,11.86
2022-11-16T16:16:29.990Z,11.77
2022-11-16T16:19:05.151Z,11.67
2022-11-16T16:21:45.197Z,11.60
2022-11-16T16:24:42.713Z,11.57
2022-11-16T16:27:18.877Z,11.46
2022-11-16T16:29:48.312Z,11.52
2022-11-16T16:32:27.152Z,11.41
2022-11-16T16:34:57.548Z,11.33
2022-11-16T16:37:28.609Z,11.21
2022-11-16T16:39:57.467Z,11.47
2022-11-16T16:42:27.316Z,11.47
2022-11-16T16:44:55.755Z,11.52
2022-11-16T16:47:24.160Z,11.50
2022-11-16T16:49:52.513Z,11.48
2022-11-16T16:52:21.231Z,11.36
2022-11-16T16:54:49.464Z,11.38
2022-11-16T16:57:19.060Z,11.25
2022-11-16T16:59:49.247Z,11.29
2022-11-16T17:02:18.160Z,11.28
2022-11-16T17:04:48.414Z,11.20
2022-11-16T17:07:17.353Z,11.17
2022-11-16T17:09:45.955Z,11.13
2022-11-16T17:12:14.388Z,11.07
2022-11-16T17:14:42.745Z,11.11
2022-11-16T17:17:12.377Z,11.12
2022-11-16T17:19:40.833Z,11.12
2022-11-16T17:22:09.335Z,11.03
2022-11-16T17:24:37.625Z,11.16
2022-11-16T17:27:06.518Z,11.08
2022-11-16T17:29:34.820Z,11.28
2022-11-16T17:32:03.422Z,11.31
2022-11-16T17:34:33.711Z,11.36
2022-11-16T17:37:02.033Z,11.32
2022-11-16T17:39:30.362Z,11.28
2022-11-16T17:41:58.966Z,11.25
2022-11-16T17:44:27.239Z,11.22
2022-11-16T17:46:55.699Z,11.19
2022-11-16T17:49:24.114Z,11.19
2022-11-16T17:51:53.786Z,11.14
2022-11-16T17:54:22.080Z,11.08
2022-11-16T17:56:50.322Z,11.11
2022-11-16T17:59:18.902Z,11.20
2022-11-16T18:01:48.546Z,11.31
2022-11-16T18:04:16.802Z,11.13
2022-11-16T18:06:45.054Z,11.39
2022-11-16T18:09:14.667Z,11.40
2022-11-16T18:11:42.953Z,11.46
2022-11-16T18:14:11.407Z,11.59
2022-11-16T18:16:41.110Z,11.63
2022-11-16T18:19:09.954Z,11.74
2022-11-16T18:21:40.804Z,11.69
2022-11-16T18:24:10.392Z,11.85
2022-11-16T18:26:41.507Z,11.82
2022-11-16T18:29:12.686Z,12.01
2022-11-16T18:31:41.406Z,12.06
2022-11-16T18:34:10.169Z,12.02
2022-11-16T18:36:38.452Z,12.10
2022-11-16T18:39:08.242Z,12.15
2022-11-16T18:41:36.704Z,12.21
2022-11-16T18:44:06.474Z,12.21
2022-11-16T18:46:34.920Z,12.11
2022-11-16T18:49:03.197Z,12.12
2022-11-16T18:51:31.868Z,12.24
2022-11-16T18:54:00.094Z,12.21
2022-11-16T18:56:28.578Z,12.33
2022-11-16T18:58:57.563Z,12.22
2022-11-16T19:01:28.482Z,12.25
2022-11-16T19:03:57.676Z,12.40
2022-11-16T19:06:26.582Z,12.55
2022-11-16T19:08:59.531Z,12.62
2022-11-16T19:11:29.278Z,12.56
2022-11-16T19:14:00.697Z,12.45
2022-11-16T19:16:30.963Z,12.45
2022-11-16T19:18:59.373Z,12.42
2022-11-16T19:21:27.850Z,12.50
2022-11-16T19:23:57.575Z,12.43
2022-11-16T19:26:28.006Z,12.35
2022-11-16T19:28:57.060Z,12.44
2022-11-16T19:31:28.630Z,12.33
2022-11-16T19:34:00.290Z,12.19
2022-11-16T19:36:30.452Z,12.18
2022-11-16T19:38:59.427Z,12.32
2022-11-16T19:41:28.832Z,12.20
2022-11-16T19:44:00.171Z,12.21
2022-11-16T19:46:30.548Z,12.33
2022-11-16T19:49:01.127Z,12.34
2022-11-16T19:51:31.534Z,12.36
2022-11-16T19:54:00.798Z,12.43
2022-11-16T19:56:29.573Z,12.40
2022-11-16T19:58:58.219Z,12.42
2022-11-16T20:01:29.360Z,12.47
2022-11-16T20:04:02.234Z,12.50
2022-11-16T20:06:33.020Z,12.46
2022-11-16T20:09:08.736Z,12.45
2022-11-16T20:11:39.494Z,12.40
2022-11-16T20:14:11.568Z,12.43
2022-11-16T20:16:42.301Z,12.45
2022-11-16T20:19:12.335Z,12.42
2022-11-16T20:21:42.248Z,12.43
2022-11-16T20:24:14.531Z,12.42
2022-11-16T20:26:45.458Z,12.44
2022-11-16T20:29:15.143Z,12.43
2022-11-16T20:31:45.306Z,12.48
2022-11-16T20:34:17.470Z,12.49
2022-11-16T20:36:49.619Z,12.50
2022-11-16T20:39:20.115Z,12.45
2022-11-16T20:41:49.022Z,12.54
2022-11-16T20:44:22.131Z,12.55
2022-11-16T20:46:52.343Z,12.46
2022-11-16T20:49:22.111Z,12.60
2022-11-16T20:51:51.446Z,12.58
2022-11-16T20:54:19.783Z,12.59
2022-11-16T20:56:49.596Z,12.64
2022-11-16T20:59:18.012Z,12.64
2022-11-16T21:01:48.548Z,12.68
2022-11-16T21:04:17.346Z,12.65
2022-11-16T21:06:47.422Z,12.74
2022-11-16T21:09:22.328Z,12.70
2022-11-16T21:12:08.465Z,12.76
2022-11-16T21:14:36.813Z,12.76
2022-11-16T21:17:05.148Z,12.69
2022-11-16T21:19:33.394Z,12.74
2022-11-16T21:22:02.954Z,12.76
2022-11-16T21:24:32.164Z,12.58
2022-11-16T21:27:00.412Z,12.62
2022-11-16T21:29:28.682Z,12.63
2022-11-16T21:31:56.961Z,12.63
2022-11-16T21:34:27.782Z,12.51
2022-11-16T21:36:56.145Z,12.49
2022-11-16T21:39:25.912Z,12.40
2022-11-16T21:41:54.726Z,12.36
2022-11-16T21:44:23.035Z,12.35
2022-11-16T21:46:51.336Z,12.25
2022-11-16T21:49:19.646Z,12.30
2022-11-16T21:51:47.899Z,12.22
2022-11-16T21:54:16.287Z,12.21
2022-11-16T21:56:46.170Z,12.12
2022-11-16T21:59:14.931Z,12.05
2022-11-16T22:02:01.467Z,12.09
2022-11-16T22:04:47.174Z,12.06
2022-11-16T22:07:34.159Z,12.04
2022-11-16T22:10:03.669Z,12.01
2022-11-16T22:12:33.533Z,12.09
2022-11-16T22:15:02.512Z,11.93
2022-11-16T22:17:31.054Z,12.08
2022-11-16T22:19:59.793Z,12.12
2022-11-16T22:22:28.227Z,11.99
2022-11-16T22:24:56.570Z,12.04
2022-11-16T22:27:25.099Z,11.95
2022-11-16T22:29:54.821Z,12.00
2022-11-16T22:32:23.176Z,12.09
2022-11-16T22:34:51.635Z,12.11
2022-11-16T22:37:20.120Z,12.00
2022-11-16T22:39:48.423Z,11.99
2022-11-16T22:42:16.829Z,12.01
2022-11-16T22:44:45.119Z,12.07
2022-11-16T22:47:14.764Z,12.18
2022-11-16T22:49:43.065Z,11.93
2022-11-16T22:52:11.558Z,12.16
2022-11-16T22:54:40.084Z,12.16
2022-11-16T22:57:08.687Z,12.14
2022-11-16T22:59:36.922Z,12.03
2022-11-16T23:02:05.842Z,12.11
2022-11-16T23:04:35.587Z,12.12
2022-11-16T23:07:03.856Z,12.09
2022-11-16T23:09:32.670Z,11.99
2022-11-16T23:12:18.390Z,11.96
2022-11-16T23:15:03.987Z,11.92
2022-11-16T23:17:32.257Z,11.94
2022-11-16T23:20:19.191Z,11.76
2022-11-16T23:23:05.177Z,11.86
2022-11-16T23:25:51.772Z,11.89
2022-11-16T23:28:21.241Z,11.85
2022-11-16T23:30:49.422Z,11.99
2022-11-16T23:33:17.635Z,11.97
2022-11-16T23:35:47.174Z,11.94
2022-11-16T23:38:15.684Z,11.96
2022-11-16T23:40:43.930Z,12.01
2022-11-16T23:43:29.434Z,12.06
2022-11-16T23:45:57.791Z,12.06
2022-11-16T23:48:26.081Z,11.98
2022-11-16T23:50:55.741Z,11.99
2022-11-16T23:53:23.934Z,11.99
2022-11-16T23:55:52.135Z,12.01
2022-11-16T23:58:20.323Z,11.94
